Time;durP1;ratioP1;P1;durP2;ratioP2;P2;SDS_P1;SDS_P2;PMS_P1;PMS_P2;Temp;Humidity;BMP_temperature;BMP_pressure;BME280_temperature;BME280_humidity;BME280_pressure;Samples;Min_cycle;Max_cycle;Signal;HPM_P1;HPM_P2
2022/03/04 00:00:50;;;;;;;19.63;2.90;;;;;;;;;;5097193;28;20281;-77
2022/03/04 00:03:17;;;;;;;13.30;2.97;;;;;;;;;;5099653;28;20292;-76
2022/03/04 00:05:44;;;;;;;20.20;3.33;;;;;;;;;;5091551;28;20305;-76
2022/03/04 00:08:11;;;;;;;21.53;3.27;;;;;;;;;;5091897;28;20223;-76
2022/03/04 00:10:39;;;;;;;15.37;2.80;;;;;;;;;;5105925;28;20234;-76
2022/03/04 00:13:06;;;;;;;17.43;3.07;;;;;;;;;;5096617;28;20616;-77
2022/03/04 00:15:35;;;;;;;13.37;2.70;;;;;;;;;;5104120;28;20218;-76
2022/03/04 00:18:02;;;;;;;20.43;2.77;;;;;;;;;;5109729;28;20202;-76
2022/03/04 00:20:29;;;;;;;20.37;2.80;;;;;;;;;;5108237;28;20300;-76
2022/03/04 00:22:56;;;;;;;17.97;2.63;;;;;;;;;;5091012;28;20282;-76
2022/03/04 00:25:23;;;;;;;21.53;3.13;;;;;;;;;;5090824;28;20224;-76
2022/03/04 00:27:51;;;;;;;18.10;3.00;;;;;;;;;;5103349;28;20237;-76
2022/03/04 00:30:18;;;;;;;14.97;2.53;;;;;;;;;;5111096;28;20628;-76
2022/03/04 00:32:47;;;;;;;17.63;2.90;;;;;;;;;;5099256;28;20667;-76
2022/03/04 00:35:14;;;;;;;21.37;3.57;;;;;;;;;;5091028;28;20259;-76
2022/03/04 00:37:42;;;;;;;17.13;2.77;;;;;;;;;;5107167;28;20265;-76
2022/03/04 00:40:10;;;;;;;22.10;2.90;;;;;;;;;;5091150;28;20283;-76
2022/03/04 00:42:37;;;;;;;21.33;3.20;;;;;;;;;;5105457;28;20199;-76
2022/03/04 00:45:05;;;;;;;20.10;3.23;;;;;;;;;;5103291;28;20619;-76
2022/03/04 00:47:32;;;;;;;20.53;2.77;;;;;;;;;;5099206;28;20281;-76
2022/03/04 00:50:01;;;;;;;17.77;3.00;;;;;;;;;;5091048;28;20201;-76
2022/03/04 00:52:29;;;;;;;16.33;2.70;;;;;;;;;;5099252;28;20571;-76
2022/03/04 00:54:56;;;;;;;19.77;3.30;;;;;;;;;;5106444;28;21424;-76
2022/03/04 00:57:23;;;;;;;19.57;3.30;;;;;;;;;;5099241;28;20230;-76
2022/03/04 00:59:50;;;;;;;22.83;3.37;;;;;;;;;;5095732;28;20249;-77
2022/03/04 01:02:18;;;;;;;19.60;2.53;;;;;;;;;;5110408;28;20394;-76
2022/03/04 01:04:45;;;;;;;19.80;3.00;;;;;;;;;;5102785;28;20284;-76
2022/03/04 01:07:13;;;;;;;14.80;2.70;;;;;;;;;;5106429;28;20637;-76
2022/03/04 01:09:41;;;;;;;19.67;2.77;;;;;;;;;;5104623;28;20283;-76
2022/03/04 01:12:09;;;;;;;14.70;2.73;;;;;;;;;;5114311;28;20281;-76
2022/03/04 01:14:36;;;;;;;19.50;2.97;;;;;;;;;;5111555;28;20197;-76
2022/03/04 01:17:03;;;;;;;15.67;3.07;;;;;;;;;;5103855;28;20230;-76
2022/03/04 01:19:30;;;;;;;15.77;2.30;;;;;;;;;;5105440;28;20660;-79
2022/03/04 01:21:58;;;;;;;23.47;3.23;;;;;;;;;;5097195;28;20811;-76
2022/03/04 01:24:26;;;;;;;20.27;3.00;;;;;;;;;;5101795;28;20620;-77
2022/03/04 01:26:53;;;;;;;22.10;3.07;;;;;;;;;;5101765;28;20311;-76
2022/03/04 01:29:20;;;;;;;21.07;3.00;;;;;;;;;;5104874;28;20289;-77
2022/03/04 01:31:48;;;;;;;17.27;2.77;;;;;;;;;;5102113;28;20280;-76
2022/03/04 01:34:15;;;;;;;20.27;3.07;;;;;;;;;;5105146;28;20299;-76
2022/03/04 01:36:42;;;;;;;18.40;2.83;;;;;;;;;;5106487;28;20622;-76
2022/03/04 01:39:09;;;;;;;17.53;2.83;;;;;;;;;;5107188;28;20212;-76
2022/03/04 01:41:38;;;;;;;19.07;3.70;;;;;;;;;;5102024;28;20290;-76
2022/03/04 01:44:05;;;;;;;22.23;3.13;;;;;;;;;;5102718;28;20226;-76
2022/03/04 01:46:33;;;;;;;23.17;3.50;;;;;;;;;;5102412;28;20306;-76
2022/03/04 01:49:00;;;;;;;26.40;2.77;;;;;;;;;;5099580;28;20260;-75
2022/03/04 01:51:27;;;;;;;15.17;2.47;;;;;;;;;;5105541;28;20235;-76
2022/03/04 01:53:54;;;;;;;18.63;2.83;;;;;;;;;;5100437;28;20202;-75
2022/03/04 01:56:24;;;;;;;16.63;2.90;;;;;;;;;;5109863;28;20282;-76
2022/03/04 01:58:52;;;;;;;19.13;2.80;;;;;;;;;;5093934;28;20316;-75
2022/03/04 02:01:20;;;;;;;18.83;3.07;;;;;;;;;;5103699;28;20195;-75
2022/03/04 02:03:47;;;;;;;20.60;2.67;;;;;;;;;;5101082;28;20641;-76
2022/03/04 02:06:14;;;;;;;17.87;3.03;;;;;;;;;;5099926;28;20224;-76
2022/03/04 02:08:41;;;;;;;16.17;2.60;;;;;;;;;;5105808;28;20227;-74
2022/03/04 02:11:08;;;;;;;19.63;2.60;;;;;;;;;;5093681;28;20286;-75
2022/03/04 02:13:37;;;;;;;19.93;2.90;;;;;;;;;;5104292;28;20392;-75
2022/03/04 02:16:10;;;;;;;17.73;3.13;;;;;;;;;;5104936;28;20201;-75
2022/03/04 02:18:37;;;;;;;20.00;2.50;;;;;;;;;;5099224;28;20203;-77
2022/03/04 02:21:04;;;;;;;16.77;2.70;;;;;;;;;;5095066;28;20241;-74
2022/03/04 02:23:33;;;;;;;13.83;2.70;;;;;;;;;;5097845;28;20224;-76
2022/03/04 02:26:00;;;;;;;17.53;2.73;;;;;;;;;;5092590;28;20301;-76
2022/03/04 02:28:27;;;;;;;15.80;2.70;;;;;;;;;;5107640;28;20282;-76
2022/03/04 02:30:54;;;;;;;15.53;2.47;;;;;;;;;;5093596;28;20282;-77
2022/03/04 02:33:22;;;;;;;15.70;2.93;;;;;;;;;;5105327;28;20247;-74
2022/03/04 02:35:49;;;;;;;14.30;3.17;;;;;;;;;;5097955;28;20231;-76
2022/03/04 02:38:16;;;;;;;18.17;3.20;;;;;;;;;;5093371;28;21808;-76
2022/03/04 02:40:45;;;;;;;16.20;2.57;;;;;;;;;;5099563;28;20238;-77
2022/03/04 02:43:12;;;;;;;12.97;2.63;;;;;;;;;;5102601;28;20286;-76
2022/03/04 02:45:39;;;;;;;20.73;3.30;;;;;;;;;;5099118;28;20210;-76
2022/03/04 02:48:07;;;;;;;16.23;2.87;;;;;;;;;;5109385;28;20661;-76
2022/03/04 02:50:34;;;;;;;12.33;2.33;;;;;;;;;;5096993;28;20277;-76
2022/03/04 02:53:01;;;;;;;14.07;2.30;;;;;;;;;;5107729;28;20280;-76
2022/03/04 02:55:28;;;;;;;12.60;2.40;;;;;;;;;;5112586;28;20677;-76
2022/03/04 02:57:57;;;;;;;13.80;2.90;;;;;;;;;;5111194;28;20196;-76
2022/03/04 03:00:24;;;;;;;16.03;3.07;;;;;;;;;;5109159;28;20237;-76
2022/03/04 03:02:51;;;;;;;14.30;3.00;;;;;;;;;;5104455;28;20225;-76
2022/03/04 03:05:18;;;;;;;16.97;3.07;;;;;;;;;;5095050;28;20205;-76
2022/03/04 03:07:46;;;;;;;14.20;2.43;;;;;;;;;;5109060;28;20305;-76
2022/03/04 03:10:13;;;;;;;15.83;2.87;;;;;;;;;;5092306;28;20576;-76
2022/03/04 03:12:41;;;;;;;15.93;2.63;;;;;;;;;;5092277;28;20198;-76
2022/03/04 03:15:11;;;;;;;13.40;2.90;;;;;;;;;;5109657;28;20235;-76
2022/03/04 03:17:38;;;;;;;14.00;2.50;;;;;;;;;;5095725;28;20284;-76
2022/03/04 03:20:07;;;;;;;14.23;2.63;;;;;;;;;;5104617;28;20196;-76
2022/03/04 03:22:34;;;;;;;13.23;2.57;;;;;;;;;;5099352;28;20666;-76
2022/03/04 03:25:01;;;;;;;16.73;2.47;;;;;;;;;;5097617;28;20671;-77
2022/03/04 03:27:29;;;;;;;18.77;2.93;;;;;;;;;;5103029;28;20249;-76
2022/03/04 03:29:56;;;;;;;13.53;3.03;;;;;;;;;;5100490;28;20731;-76
2022/03/04 03:32:24;;;;;;;12.73;2.47;;;;;;;;;;5098644;28;20244;-76
2022/03/04 03:34:52;;;;;;;16.30;2.67;;;;;;;;;;5097516;28;20317;-76
2022/03/04 03:37:19;;;;;;;21.53;3.23;;;;;;;;;;5103142;28;20197;-76
2022/03/04 03:39:46;;;;;;;14.00;3.00;;;;;;;;;;5101682;28;20292;-76
2022/03/04 03:42:13;;;;;;;16.13;2.70;;;;;;;;;;5102658;28;20218;-76
2022/03/04 03:44:40;;;;;;;10.90;2.47;;;;;;;;;;5106750;28;20276;-76
2022/03/04 03:47:09;;;;;;;20.87;3.20;;;;;;;;;;5102122;28;20317;-76
2022/03/04 03:49:38;;;;;;;16.87;2.67;;;;;;;;;;5096008;28;20205;-76
2022/03/04 03:52:05;;;;;;;18.97;2.80;;;;;;;;;;5108024;28;20278;-77
2022/03/04 03:54:32;;;;;;;15.43;2.90;;;;;;;;;;5093533;28;20198;-76
2022/03/04 03:57:00;;;;;;;11.20;3.10;;;;;;;;;;5092138;28;20225;-76
2022/03/04 03:59:27;;;;;;;15.37;2.93;;;;;;;;;;5111122;28;20249;-76
2022/03/04 04:01:54;;;;;;;13.80;2.50;;;;;;;;;;5111887;28;20681;-76
2022/03/04 04:04:21;;;;;;;14.20;2.40;;;;;;;;;;5091963;28;20244;-75
2022/03/04 04:06:50;;;;;;;14.63;2.63;;;;;;;;;;5094559;28;20304;-76
2022/03/04 04:09:17;;;;;;;13.80;3.60;;;;;;;;;;5097830;28;20230;-75
2022/03/04 04:11:44;;;;;;;16.03;3.00;;;;;;;;;;5095338;28;20285;-76
2022/03/04 04:14:12;;;;;;;17.33;3.00;;;;;;;;;;5100348;28;20653;-76
2022/03/04 04:16:39;;;;;;;14.27;3.03;;;;;;;;;;5104027;28;20225;-75
2022/03/04 04:19:07;;;;;;;14.40;2.80;;;;;;;;;;5109660;28;20281;-75
2022/03/04 04:21:35;;;;;;;16.50;2.80;;;;;;;;;;5100509;28;20292;-76
2022/03/04 04:24:03;;;;;;;18.00;2.87;;;;;;;;;;5110804;28;20205;-75
2022/03/04 04:26:31;;;;;;;14.50;2.90;;;;;;;;;;5094340;28;20238;-76
2022/03/04 04:28:58;;;;;;;15.87;2.37;;;;;;;;;;5106441;28;20305;-76
2022/03/04 04:31:26;;;;;;;13.67;2.53;;;;;;;;;;5093930;28;20281;-76
2022/03/04 04:33:53;;;;;;;10.67;2.40;;;;;;;;;;5091401;28;20302;-75
2022/03/04 04:36:21;;;;;;;12.47;2.60;;;;;;;;;;5113490;28;20264;-75
2022/03/04 04:38:48;;;;;;;21.03;2.67;;;;;;;;;;5113895;28;20285;-76
2022/03/04 04:41:16;;;;;;;18.40;2.80;;;;;;;;;;5109084;28;20277;-75
2022/03/04 04:43:44;;;;;;;16.77;2.90;;;;;;;;;;5105400;28;20226;-76
2022/03/04 04:46:12;;;;;;;14.57;3.13;;;;;;;;;;5106997;28;20608;-76
2022/03/04 04:48:39;;;;;;;17.13;2.90;;;;;;;;;;5105476;28;20286;-75
2022/03/04 04:51:06;;;;;;;19.80;2.70;;;;;;;;;;5105737;28;20863;-76
2022/03/04 04:53:34;;;;;;;21.43;3.20;;;;;;;;;;5106458;28;20197;-75
2022/03/04 04:56:01;;;;;;;13.53;2.90;;;;;;;;;;5105739;28;20684;-76
2022/03/04 04:58:30;;;;;;;15.93;2.97;;;;;;;;;;5106369;28;20274;-75
2022/03/04 05:00:57;;;;;;;10.87;2.37;;;;;;;;;;5103351;28;20225;-76
2022/03/04 05:03:25;;;;;;;15.60;3.33;;;;;;;;;;5112566;28;20232;-75
2022/03/04 05:05:52;;;;;;;14.20;3.00;;;;;;;;;;5104148;28;20290;-76
2022/03/04 05:08:20;;;;;;;18.70;3.00;;;;;;;;;;5092343;28;20649;-76
2022/03/04 05:10:47;;;;;;;16.63;2.63;;;;;;;;;;5106052;28;20238;-76
2022/03/04 05:13:14;;;;;;;15.67;2.83;;;;;;;;;;5099370;28;20233;-75
2022/03/04 05:15:43;;;;;;;14.77;3.07;;;;;;;;;;5106159;28;20194;-76
2022/03/04 05:18:10;;;;;;;15.87;2.93;;;;;;;;;;5104325;28;20284;-76
2022/03/04 05:20:38;;;;;;;13.47;2.93;;;;;;;;;;5104388;28;20282;-75
2022/03/04 05:23:06;;;;;;;16.33;3.13;;;;;;;;;;5111092;28;20669;-75
2022/03/04 05:25:33;;;;;;;13.50;3.00;;;;;;;;;;5115224;28;20240;-76
2022/03/04 05:28:00;;;;;;;14.37;3.07;;;;;;;;;;5114631;28;20264;-75
2022/03/04 05:30:28;;;;;;;10.80;2.67;;;;;;;;;;5109066;28;20252;-76
2022/03/04 05:32:56;;;;;;;11.33;3.13;;;;;;;;;;5105700;28;20240;-76
2022/03/04 05:35:23;;;;;;;15.50;3.00;;;;;;;;;;5107888;28;20257;-76
2022/03/04 05:37:51;;;;;;;19.87;3.37;;;;;;;;;;5108322;28;20233;-76
2022/03/04 05:40:18;;;;;;;16.73;2.90;;;;;;;;;;5105585;28;20249;-75
2022/03/04 05:42:45;;;;;;;16.40;2.97;;;;;;;;;;5114733;28;20204;-75
2022/03/04 05:45:12;;;;;;;16.33;2.70;;;;;;;;;;5101014;28;20279;-76
2022/03/04 05:47:39;;;;;;;16.67;2.80;;;;;;;;;;5098627;28;20226;-76
2022/03/04 05:50:09;;;;;;;11.47;2.80;;;;;;;;;;5105538;28;20221;-76
2022/03/04 05:52:36;;;;;;;11.40;2.60;;;;;;;;;;5100040;28;20287;-76
2022/03/04 05:55:03;;;;;;;14.23;2.80;;;;;;;;;;5104130;28;20281;-76
2022/03/04 05:57:30;;;;;;;21.03;3.20;;;;;;;;;;5105167;28;20222;-75
2022/03/04 05:59:58;;;;;;;13.70;4.00;;;;;;;;;;5101986;28;20582;-76
2022/03/04 06:02:27;;;;;;;11.27;2.90;;;;;;;;;;5102058;28;20195;-76
2022/03/04 06:04:54;;;;;;;16.00;3.67;;;;;;;;;;5109680;28;20192;-78
2022/03/04 06:07:23;;;;;;;13.67;4.40;;;;;;;;;;5098378;28;20308;-77
2022/03/04 06:09:50;;;;;;;11.93;3.30;;;;;;;;;;5104410;28;20217;-77
2022/03/04 06:12:17;;;;;;;11.23;3.60;;;;;;;;;;5105019;28;20198;-78
2022/03/04 06:14:44;;;;;;;17.83;4.10;;;;;;;;;;5100727;28;20297;-77
2022/03/04 06:17:11;;;;;;;15.57;3.53;;;;;;;;;;5102446;28;20250;-77
2022/03/04 06:19:40;;;;;;;11.67;3.63;;;;;;;;;;5108927;28;20229;-77
2022/03/04 06:22:07;;;;;;;11.07;3.33;;;;;;;;;;5100332;28;20205;-76
2022/03/04 06:24:35;;;;;;;12.90;3.07;;;;;;;;;;5103497;28;20194;-76
2022/03/04 06:27:02;;;;;;;13.27;3.00;;;;;;;;;;5102957;28;20263;-76
2022/03/04 06:29:30;;;;;;;13.63;2.53;;;;;;;;;;5102577;28;20274;-76
2022/03/04 06:31:57;;;;;;;13.20;2.77;;;;;;;;;;5093486;28;20289;-75
2022/03/04 06:34:24;;;;;;;10.63;2.70;;;;;;;;;;5097090;28;20240;-76
2022/03/04 06:36:51;;;;;;;13.00;2.50;;;;;;;;;;5094910;28;20741;-75
2022/03/04 06:39:18;;;;;;;7.50;2.20;;;;;;;;;;5099369;28;20206;-76
2022/03/04 06:41:48;;;;;;;12.23;2.90;;;;;;;;;;5090982;28;20689;-77
2022/03/04 06:44:15;;;;;;;11.53;2.37;;;;;;;;;;5097075;28;21771;-78
2022/03/04 06:46:42;;;;;;;6.77;2.37;;;;;;;;;;5101566;28;20258;-75
2022/03/04 06:49:11;;;;;;;12.20;2.73;;;;;;;;;;5088932;28;20218;-77
2022/03/04 06:51:39;;;;;;;13.80;2.50;;;;;;;;;;5096083;28;20624;-78
2022/03/04 06:54:06;;;;;;;12.53;2.50;;;;;;;;;;5092393;28;21600;-77
2022/03/04 06:56:33;;;;;;;9.97;2.37;;;;;;;;;;5086923;28;20579;-77
2022/03/04 06:59:02;;;;;;;11.43;2.47;;;;;;;;;;5092891;28;20263;-77
2022/03/04 07:01:29;;;;;;;15.73;2.50;;;;;;;;;;5093023;28;20231;-77
2022/03/04 07:03:56;;;;;;;6.20;2.20;;;;;;;;;;5093675;28;20280;-77
2022/03/04 07:06:24;;;;;;;15.97;2.80;;;;;;;;;;5091915;28;20282;-77
2022/03/04 07:08:51;;;;;;;11.40;2.60;;;;;;;;;;5107863;28;20377;-77
2022/03/04 07:11:18;;;;;;;10.37;2.63;;;;;;;;;;5092028;28;20217;-77
2022/03/04 07:13:45;;;;;;;12.00;2.73;;;;;;;;;;5095014;28;20206;-77
2022/03/04 07:16:14;;;;;;;12.67;2.70;;;;;;;;;;5091564;28;20607;-77
2022/03/04 07:18:41;;;;;;;14.60;3.20;;;;;;;;;;5104710;28;20282;-77
2022/03/04 07:21:08;;;;;;;17.10;3.17;;;;;;;;;;5103646;28;20248;-77
2022/03/04 07:23:35;;;;;;;9.87;2.60;;;;;;;;;;5096441;28;20241;-77
2022/03/04 07:26:08;;;;;;;13.90;2.97;;;;;;;;;;5104640;28;20203;-77
2022/03/04 07:28:35;;;;;;;11.00;2.40;;;;;;;;;;5089799;28;20295;-76
2022/03/04 07:31:02;;;;;;;15.60;2.47;;;;;;;;;;5100010;28;20285;-77
2022/03/04 07:33:31;;;;;;;9.27;2.73;;;;;;;;;;5104516;28;20203;-75
2022/03/04 07:35:58;;;;;;;11.90;2.70;;;;;;;;;;5094467;28;20316;-75
2022/03/04 07:38:25;;;;;;;8.60;2.63;;;;;;;;;;5091664;28;20693;-75
2022/03/04 07:40:53;;;;;;;14.93;2.33;;;;;;;;;;5090683;28;20759;-75
2022/03/04 07:43:22;;;;;;;15.87;3.00;;;;;;;;;;5091974;28;20199;-77
2022/03/04 07:45:49;;;;;;;11.43;2.50;;;;;;;;;;5090847;28;20203;-76
2022/03/04 07:48:16;;;;;;;10.13;2.40;;;;;;;;;;5107088;28;20309;-75
2022/03/04 07:50:45;;;;;;;12.90;2.73;;;;;;;;;;5082416;28;20218;-75
2022/03/04 07:53:12;;;;;;;13.73;2.70;;;;;;;;;;5092133;28;20629;-76
2022/03/04 07:55:39;;;;;;;7.97;2.10;;;;;;;;;;5106499;28;20197;-75
2022/03/04 07:58:07;;;;;;;9.33;2.60;;;;;;;;;;5096610;28;20269;-76
2022/03/04 08:00:34;;;;;;;12.30;2.77;;;;;;;;;;5103988;28;20285;-76
2022/03/04 08:03:01;;;;;;;16.63;3.00;;;;;;;;;;5091713;28;20259;-75
2022/03/04 08:05:29;;;;;;;10.97;2.77;;;;;;;;;;5096428;28;20251;-76
2022/03/04 08:07:57;;;;;;;10.10;2.60;;;;;;;;;;5105248;28;20310;-76
2022/03/04 08:10:24;;;;;;;12.03;2.73;;;;;;;;;;5105650;28;20231;-76
2022/03/04 08:12:51;;;;;;;16.50;2.70;;;;;;;;;;5098909;28;20283;-76
2022/03/04 08:15:19;;;;;;;10.60;2.13;;;;;;;;;;5107962;28;20238;-76
2022/03/04 08:17:46;;;;;;;10.53;2.57;;;;;;;;;;5101597;28;20681;-76
2022/03/04 08:20:13;;;;;;;13.27;2.60;;;;;;;;;;5114930;28;20301;-76
2022/03/04 08:22:40;;;;;;;15.03;3.13;;;;;;;;;;5103683;28;20259;-76
2022/03/04 08:25:09;;;;;;;15.07;2.90;;;;;;;;;;5100203;28;20668;-76
2022/03/04 08:27:39;;;;;;;9.83;2.53;;;;;;;;;;5097445;28;20281;-76
2022/03/04 08:30:09;;;;;;;9.63;2.40;;;;;;;;;;5099221;28;20282;-76
2022/03/04 08:32:36;;;;;;;12.17;2.20;;;;;;;;;;5098908;28;20191;-75
2022/03/04 08:35:04;;;;;;;14.90;2.43;;;;;;;;;;5094437;28;20706;-76
2022/03/04 08:37:31;;;;;;;11.97;2.20;;;;;;;;;;5105808;28;20784;-76
2022/03/04 08:39:59;;;;;;;9.33;1.97;;;;;;;;;;5105382;28;20231;-75
2022/03/04 08:42:27;;;;;;;12.60;2.57;;;;;;;;;;5113250;28;20357;-76
2022/03/04 08:44:55;;;;;;;10.43;2.03;;;;;;;;;;5106772;28;20329;-76
2022/03/04 08:47:22;;;;;;;13.63;2.37;;;;;;;;;;5102708;28;20280;-77
2022/03/04 08:49:49;;;;;;;12.40;2.33;;;;;;;;;;5105636;28;20685;-77
2022/03/04 08:52:17;;;;;;;12.30;2.33;;;;;;;;;;5097008;28;20225;-76
2022/03/04 08:54:44;;;;;;;9.37;1.80;;;;;;;;;;5095798;28;20245;-76
2022/03/04 08:57:12;;;;;;;8.23;1.97;;;;;;;;;;5094436;28;20281;-76
2022/03/04 08:59:41;;;;;;;9.20;1.83;;;;;;;;;;5101189;28;20249;-76
2022/03/04 09:02:08;;;;;;;9.03;1.80;;;;;;;;;;5094835;28;20230;-76
2022/03/04 09:04:35;;;;;;;10.33;2.17;;;;;;;;;;5094680;28;20206;-76
2022/03/04 09:07:02;;;;;;;12.20;2.20;;;;;;;;;;5105340;28;20226;-75
2022/03/04 09:09:30;;;;;;;11.83;2.40;;;;;;;;;;5106434;28;20754;-78
2022/03/04 09:11:57;;;;;;;10.43;1.90;;;;;;;;;;5104742;28;20208;-78
2022/03/04 09:14:24;;;;;;;8.90;1.90;;;;;;;;;;5104856;28;20220;-78
2022/03/04 09:16:53;;;;;;;10.67;2.47;;;;;;;;;;5104545;28;20680;-77
2022/03/04 09:19:20;;;;;;;9.33;2.00;;;;;;;;;;5115106;28;20204;-78
2022/03/04 09:21:48;;;;;;;10.67;2.03;;;;;;;;;;5103319;28;20237;-77
2022/03/04 09:24:15;;;;;;;11.40;1.90;;;;;;;;;;5102973;28;20194;-78
2022/03/04 09:26:42;;;;;;;11.57;2.13;;;;;;;;;;5101564;28;20703;-77
2022/03/04 09:29:10;;;;;;;9.63;1.73;;;;;;;;;;5094298;28;20697;-77
2022/03/04 09:31:37;;;;;;;14.03;2.50;;;;;;;;;;5111650;28;20218;-78
2022/03/04 09:34:05;;;;;;;10.23;2.03;;;;;;;;;;5112785;28;20289;-77
2022/03/04 09:36:37;;;;;;;7.90;1.90;;;;;;;;;;5107376;28;20596;-77
2022/03/04 09:39:04;;;;;;;8.77;2.20;;;;;;;;;;5094154;28;20288;-77
2022/03/04 09:41:31;;;;;;;11.77;2.63;;;;;;;;;;5098650;28;20229;-77
2022/03/04 09:43:59;;;;;;;12.47;1.63;;;;;;;;;;5099098;28;20673;-77
2022/03/04 09:46:26;;;;;;;8.23;2.03;;;;;;;;;;5107367;28;20284;-77
2022/03/04 09:48:54;;;;;;;5.90;1.60;;;;;;;;;;5106635;28;20300;-77
2022/03/04 09:51:23;;;;;;;9.10;1.60;;;;;;;;;;5110170;28;20237;-77
2022/03/04 09:53:52;;;;;;;8.63;2.03;;;;;;;;;;5101244;28;20285;-77
2022/03/04 09:56:20;;;;;;;8.97;1.53;;;;;;;;;;5095221;28;20777;-77
2022/03/04 09:58:47;;;;;;;9.60;1.90;;;;;;;;;;5113303;28;20279;-77
2022/03/04 10:01:15;;;;;;;8.20;1.80;;;;;;;;;;5107544;28;20281;-77
2022/03/04 10:03:43;;;;;;;8.13;1.63;;;;;;;;;;5105891;28;20232;-77
2022/03/04 10:06:11;;;;;;;6.20;1.80;;;;;;;;;;5096653;28;20202;-77
2022/03/04 10:08:40;;;;;;;10.53;1.80;;;;;;;;;;5094090;28;20240;-78
2022/03/04 10:11:07;;;;;;;6.13;1.53;;;;;;;;;;5109560;28;20677;-78
2022/03/04 10:13:45;;;;;;;6.13;1.70;;;;;;;;;;5112244;28;20221;-78
2022/03/04 10:16:13;;;;;;;9.97;2.00;;;;;;;;;;5102128;28;20282;-78
2022/03/04 10:18:40;;;;;;;7.30;1.63;;;;;;;;;;5100501;28;20235;-78
2022/03/04 10:21:07;;;;;;;9.07;1.80;;;;;;;;;;5092501;28;20281;-78
2022/03/04 10:23:35;;;;;;;8.63;1.67;;;;;;;;;;5097378;28;20661;-77
2022/03/04 10:26:03;;;;;;;5.93;1.33;;;;;;;;;;5106065;28;20260;-77
2022/03/04 10:28:32;;;;;;;6.93;1.67;;;;;;;;;;5100775;28;20313;-77
2022/03/04 10:30:59;;;;;;;4.73;1.40;;;;;;;;;;5103989;28;20202;-79
2022/03/04 10:33:27;;;;;;;6.50;1.50;;;;;;;;;;5113545;28;20193;-79
2022/03/04 10:36:08;;;;;;;8.47;1.87;;;;;;;;;;5100521;28;20274;-79
2022/03/04 10:38:35;;;;;;;4.80;1.43;;;;;;;;;;5094826;28;20240;-77
2022/03/04 10:41:20;;;;;;;6.30;1.57;;;;;;;;;;5105684;28;20295;-77
2022/03/04 10:43:48;;;;;;;8.57;1.70;;;;;;;;;;5105308;28;20289;-78
2022/03/04 10:46:15;;;;;;;8.33;1.50;;;;;;;;;;5112379;28;20286;-79
2022/03/04 10:48:51;;;;;;;7.83;1.70;;;;;;;;;;5105926;28;20221;-79
2022/03/04 10:51:33;;;;;;;7.07;1.53;;;;;;;;;;5091483;28;20190;-78
2022/03/04 10:54:10;;;;;;;3.00;1.27;;;;;;;;;;5082868;28;20248;-78
2022/03/04 10:56:51;;;;;;;5.40;1.70;;;;;;;;;;5092877;28;20216;-78
2022/03/04 10:59:19;;;;;;;6.43;1.30;;;;;;;;;;5096233;28;20228;-79
2022/03/04 11:01:49;;;;;;;5.40;1.30;;;;;;;;;;5107077;28;20247;-77
2022/03/04 11:04:20;;;;;;;6.00;1.53;;;;;;;;;;5093792;28;20225;-78
2022/03/04 11:06:48;;;;;;;6.07;1.60;;;;;;;;;;5101011;28;20230;-78
2022/03/04 11:09:16;;;;;;;5.90;1.43;;;;;;;;;;5092174;28;20301;-78
2022/03/04 11:11:44;;;;;;;4.60;1.50;;;;;;;;;;5092570;28;20683;-78
2022/03/04 11:14:13;;;;;;;5.97;1.67;;;;;;;;;;5103508;28;20197;-77
2022/03/04 11:16:41;;;;;;;4.47;1.30;;;;;;;;;;5108398;28;20231;-76
2022/03/04 11:19:09;;;;;;;5.57;1.53;;;;;;;;;;5099592;28;20196;-78
2022/03/04 11:21:36;;;;;;;7.17;1.40;;;;;;;;;;5097244;28;20287;-77
2022/03/04 11:24:03;;;;;;;8.60;1.40;;;;;;;;;;5112655;28;20288;-77
2022/03/04 11:26:32;;;;;;;7.50;1.30;;;;;;;;;;5103571;28;20285;-78
2022/03/04 11:29:02;;;;;;;7.47;1.20;;;;;;;;;;5109750;28;20297;-77
2022/03/04 11:31:31;;;;;;;6.63;1.47;;;;;;;;;;5091650;28;20251;-78
2022/03/04 11:34:00;;;;;;;8.03;1.20;;;;;;;;;;5105720;28;20293;-77
2022/03/04 11:36:29;;;;;;;8.20;1.50;;;;;;;;;;5109841;28;20576;-77
2022/03/04 11:39:00;;;;;;;4.83;1.10;;;;;;;;;;5104281;28;20571;-78
2022/03/04 11:41:34;;;;;;;3.50;1.10;;;;;;;;;;5092220;28;20238;-78
2022/03/04 11:44:02;;;;;;;6.13;1.40;;;;;;;;;;5091621;28;20286;-77
2022/03/04 11:46:30;;;;;;;8.63;1.50;;;;;;;;;;5092721;28;20709;-77
2022/03/04 11:49:16;;;;;;;5.77;1.17;;;;;;;;;;5091170;28;20302;-78
2022/03/04 11:52:10;;;;;;;6.73;1.43;;;;;;;;;;5095636;28;20194;-78
2022/03/04 11:54:37;;;;;;;8.00;1.90;;;;;;;;;;5106658;28;20201;-78
2022/03/04 11:57:16;;;;;;;8.60;1.40;;;;;;;;;;5095747;28;20233;-78
2022/03/04 11:59:49;;;;;;;4.17;0.90;;;;;;;;;;5106199;28;20248;-78
2022/03/04 12:02:19;;;;;;;4.33;0.90;;;;;;;;;;5111822;28;20220;-78
2022/03/04 12:04:47;;;;;;;3.47;1.10;;;;;;;;;;5112068;28;20360;-78
2022/03/04 12:07:15;;;;;;;4.83;1.17;;;;;;;;;;5111857;28;20645;-78
2022/03/04 12:09:49;;;;;;;4.93;0.90;;;;;;;;;;5102591;28;20245;-78
2022/03/04 12:12:18;;;;;;;5.20;1.15;;;;;;;;;;5097586;28;21590;-78
2022/03/04 12:14:47;;;;;;;6.67;1.60;;;;;;;;;;5091449;28;20209;-78
2022/03/04 12:17:15;;;;;;;5.47;1.30;;;;;;;;;;5099671;28;20293;-78
2022/03/04 12:19:42;;;;;;;6.10;1.23;;;;;;;;;;5096542;28;20233;-78
2022/03/04 12:22:10;;;;;;;6.30;1.00;;;;;;;;;;5100344;28;20299;-77
2022/03/04 12:24:39;;;;;;;4.93;1.33;;;;;;;;;;5110502;28;20616;-78
2022/03/04 12:27:06;;;;;;;5.00;1.17;;;;;;;;;;5090195;28;20693;-78
2022/03/04 12:29:43;;;;;;;3.80;1.20;;;;;;;;;;5090657;28;20306;-78
2022/03/04 12:32:10;;;;;;;5.68;1.27;;;;;;;;;;5090244;28;20289;-78
2022/03/04 12:34:42;;;;;;;6.20;1.75;;;;;;;;;;5093746;28;20194;-78
2022/03/04 12:37:14;;;;;;;6.15;1.75;;;;;;;;;;5099782;28;20206;-79
2022/03/04 12:39:46;;;;;;;6.20;1.60;;;;;;;;;;5102085;28;20279;-78
2022/03/04 12:42:14;;;;;;;3.70;1.20;;;;;;;;;;5101549;28;20223;-78
2022/03/04 12:44:42;;;;;;;3.70;0.90;;;;;;;;;;5101075;28;20191;-78
2022/03/04 12:47:10;;;;;;;6.07;1.15;;;;;;;;;;5096777;28;20198;-77
2022/03/04 12:49:41;;;;;;;3.37;1.07;;;;;;;;;;5105404;28;20241;-78
2022/03/04 12:52:08;;;;;;;3.70;1.20;;;;;;;;;;5093693;28;20332;-78
2022/03/04 12:54:35;;;;;;;5.27;1.00;;;;;;;;;;5096748;28;20742;-78
2022/03/04 12:57:05;;;;;;;8.13;1.30;;;;;;;;;;5105147;28;20294;-78
2022/03/04 12:59:43;;;;;;;3.20;1.10;;;;;;;;;;5110909;28;20289;-79
2022/03/04 13:02:10;;;;;;;2.70;0.90;;;;;;;;;;5106378;28;20217;-79
2022/03/04 13:04:38;;;;;;;4.37;1.00;;;;;;;;;;5105321;28;20690;-78
2022/03/04 13:07:06;;;;;;;4.00;1.30;;;;;;;;;;5106736;28;20221;-79
2022/03/04 13:09:33;;;;;;;7.60;1.10;;;;;;;;;;5101608;28;20240;-79
2022/03/04 13:12:05;;;;;;;9.50;1.57;;;;;;;;;;5105059;28;20261;-77
2022/03/04 13:14:33;;;;;;;5.10;1.60;;;;;;;;;;5106536;28;20240;-78
2022/03/04 13:17:00;;;;;;;5.20;1.43;;;;;;;;;;5104467;28;20193;-78
2022/03/04 13:19:29;;;;;;;8.00;1.30;;;;;;;;;;5105750;28;20289;-78
2022/03/04 13:22:00;;;;;;;4.77;1.23;;;;;;;;;;5105306;28;20198;-78
2022/03/04 13:24:29;;;;;;;6.87;1.50;;;;;;;;;;5100665;28;20289;-78
2022/03/04 13:26:57;;;;;;;5.53;1.10;;;;;;;;;;5105619;28;20233;-78
2022/03/04 13:29:31;;;;;;;6.13;1.03;;;;;;;;;;5111357;28;20309;-78
2022/03/04 13:32:05;;;;;;;6.73;1.20;;;;;;;;;;5106009;28;20208;-78
2022/03/04 13:34:33;;;;;;;4.83;1.17;;;;;;;;;;5096433;28;20239;-77
2022/03/04 13:37:02;;;;;;;5.33;1.20;;;;;;;;;;5102591;28;20237;-77
2022/03/04 13:39:30;;;;;;;5.23;1.20;;;;;;;;;;5108138;28;20323;-77
2022/03/04 13:42:17;;;;;;;5.00;1.37;;;;;;;;;;5109061;28;20366;-77
2022/03/04 13:44:53;;;;;;;5.17;1.00;;;;;;;;;;5101910;28;20251;-77
2022/03/04 13:47:54;;;;;;;5.00;0.90;;;;;;;;;;5104931;28;20247;-77
2022/03/04 13:50:29;;;;;;;8.30;1.43;;;;;;;;;;5061751;28;20709;-76
2022/03/04 13:53:01;;;;;;;4.50;0.90;;;;;;;;;;5055940;28;20742;-77
2022/03/04 13:55:39;;;;;;;5.57;1.20;;;;;;;;;;5059245;28;20235;-77
2022/03/04 13:58:08;;;;;;;3.47;1.00;;;;;;;;;;5063485;28;20612;-77
2022/03/04 14:00:38;;;;;;;5.90;1.10;;;;;;;;;;5055250;28;20191;-78
2022/03/04 14:03:06;;;;;;;6.03;1.20;;;;;;;;;;5051630;28;20200;-77
2022/03/04 14:05:34;;;;;;;8.57;1.53;;;;;;;;;;5061092;28;21036;-77
2022/03/04 14:08:02;;;;;;;7.63;1.60;;;;;;;;;;5053241;28;20230;-77
2022/03/04 14:10:29;;;;;;;5.33;1.20;;;;;;;;;;5064127;28;20586;-77
2022/03/04 14:12:56;;;;;;;4.60;1.10;;;;;;;;;;5054812;28;20276;-77
2022/03/04 14:15:24;;;;;;;7.47;0.97;;;;;;;;;;5060371;28;20282;-77
2022/03/04 14:17:54;;;;;;;5.00;1.20;;;;;;;;;;5058960;28;20302;-77
2022/03/04 14:20:21;;;;;;;6.90;1.13;;;;;;;;;;5047743;28;20192;-77
2022/03/04 14:22:48;;;;;;;5.73;1.07;;;;;;;;;;5061147;28;20230;-78
2022/03/04 14:25:16;;;;;;;3.43;1.00;;;;;;;;;;5085426;28;20279;-77
2022/03/04 14:27:46;;;;;;;3.07;1.07;;;;;;;;;;5092694;28;20198;-77
2022/03/04 14:30:14;;;;;;;4.80;1.50;;;;;;;;;;5092003;28;20214;-78
2022/03/04 14:32:42;;;;;;;3.93;1.10;;;;;;;;;;5097831;28;20194;-78
2022/03/04 14:35:11;;;;;;;3.60;0.90;;;;;;;;;;5111063;28;20258;-78
2022/03/04 14:37:38;;;;;;;3.07;1.00;;;;;;;;;;5099362;28;20750;-77
2022/03/04 14:40:07;;;;;;;3.77;0.77;;;;;;;;;;5092432;28;20222;-78
2022/03/04 14:42:35;;;;;;;3.63;1.50;;;;;;;;;;5092452;28;20202;-78